Time;durP1;ratioP1;P1;durP2;ratioP2;P2;SDS_P1;SDS_P2;PMS_P1;PMS_P2;Temp;Humidity;BMP_temperature;BMP_pressure;BME280_temperature;BME280_humidity;BME280_pressure;Samples;Min_cycle;Max_cycle;Signal;HPM_P1;HPM_P2
2021/05/02 00:01:26;;;;;;;4.40;4.10;;;;;;;5.57;64.68;100653.06;6161496;23;20056;-72
2021/05/02 00:03:51;;;;;;;4.80;4.60;;;;;;;5.52;64.18;100647.47;6161890;23;20071;-74
2021/05/02 00:06:17;;;;;;;4.60;4.30;;;;;;;5.53;64.73;100647.22;6160349;23;20009;-74
2021/05/02 00:08:43;;;;;;;5.63;5.22;;;;;;;5.47;64.93;100653.56;6188494;23;20016;-71
2021/05/02 00:11:10;;;;;;;6.22;4.68;;;;;;;5.42;64.82;100650.72;6186651;23;20132;-73
2021/05/02 00:13:38;;;;;;;3.58;3.38;;;;;;;5.37;64.61;100656.84;6189131;23;20011;-73
2021/05/02 00:16:05;;;;;;;2.33;2.22;;;;;;;5.30;64.28;100647.94;6184958;23;20033;-73
2021/05/02 00:18:32;;;;;;;2.20;2.10;;;;;;;5.28;64.81;100657.34;6186501;23;20079;-72
2021/05/02 00:20:59;;;;;;;1.95;1.85;;;;;;;5.26;64.32;100657.56;6184042;23;19989;-74
2021/05/02 00:23:24;;;;;;;1.67;1.63;;;;;;;5.23;64.67;100658.03;6186646;23;20005;-74
2021/05/02 00:25:51;;;;;;;1.40;1.40;;;;;;;5.15;64.52;100650.19;6186357;23;20036;-73
2021/05/02 00:28:18;;;;;;;1.13;1.13;;;;;;;5.10;64.42;100650.03;6160436;23;20375;-73
2021/05/02 00:30:44;;;;;;;1.88;1.77;;;;;;;5.06;64.42;100647.75;6187649;23;20001;-72
2021/05/02 00:33:10;;;;;;;2.80;2.60;;;;;;;5.01;64.79;100650.31;6162331;23;20111;-72
2021/05/02 00:35:36;;;;;;;2.30;2.10;;;;;;;5.03;64.71;100658.22;6189343;23;20008;-73
2021/05/02 00:38:02;;;;;;;1.40;1.40;;;;;;;5.03;64.73;100659.03;6188694;23;20009;-72
2021/05/02 00:40:42;;;;;;;1.20;1.20;;;;;;;5.03;64.17;100661.75;6164047;23;20169;-73
2021/05/02 00:43:09;;;;;;;0.88;0.88;;;;;;;5.01;64.30;100654.91;6189924;23;20005;-74
2021/05/02 00:45:41;;;;;;;3.90;2.08;;;;;;;4.95;64.12;100656.63;6189643;23;20008;-74
2021/05/02 00:48:16;;;;;;;0.82;0.82;;;;;;;4.92;64.69;100650.81;6162395;23;20036;-73
2021/05/02 00:50:54;;;;;;;0.80;0.80;;;;;;;4.87;64.09;100654.19;6191390;23;20004;-73
2021/05/02 00:53:37;;;;;;;1.08;0.88;;;;;;;4.87;64.44;100665.03;6188798;23;20012;-73
2021/05/02 00:56:24;;;;;;;0.85;0.85;;;;;;;4.82;64.58;100657.59;6192192;23;20012;-74
2021/05/02 00:59:01;;;;;;;0.90;0.90;;;;;;;4.81;64.19;100660.50;6159285;23;20024;-73
2021/05/02 01:01:31;;;;;;;0.90;0.90;;;;;;;4.73;64.16;100650.75;6165293;23;20009;-72
2021/05/02 01:03:58;;;;;;;0.85;0.85;;;;;;;4.70;64.37;100654.78;6189100;23;20028;-74
2021/05/02 01:06:24;;;;;;;0.55;0.55;;;;;;;4.66;63.93;100653.53;6166593;23;20001;-73
2021/05/02 01:08:56;;;;;;;1.05;1.02;;;;;;;4.63;63.86;100654.00;6165325;23;20009;-73
2021/05/02 01:11:24;;;;;;;0.82;0.82;;;;;;;4.60;63.93;100654.44;6193330;23;20412;-72
2021/05/02 01:13:54;;;;;;;1.60;1.50;;;;;;;4.62;64.44;100662.34;6142315;23;20028;-72
2021/05/02 01:16:22;;;;;;;2.13;1.33;;;;;;;4.66;64.05;100663.56;6189455;23;20005;-73
2021/05/02 01:18:49;;;;;;;5.38;1.30;;;;;;;4.62;64.47;100663.16;6188814;23;20319;-74
2021/05/02 01:21:16;;;;;;;2.13;2.03;;;;;;;4.61;64.46;100658.78;6165260;23;20040;-73
2021/05/02 01:23:42;;;;;;;2.30;2.20;;;;;;;4.63;64.14;100664.81;6188688;23;20053;-73
2021/05/02 01:26:08;;;;;;;1.30;1.30;;;;;;;4.51;64.37;100661.16;6169560;23;20446;-73
2021/05/02 01:28:37;;;;;;;1.10;1.10;;;;;;;4.49;64.94;100663.28;6190847;23;20069;-74
2021/05/02 01:31:03;;;;;;;1.00;1.00;;;;;;;4.46;64.17;100674.53;6162853;23;20028;-73
2021/05/02 01:33:29;;;;;;;1.70;1.60;;;;;;;4.37;64.14;100677.50;6139361;23;20020;-73
2021/05/02 01:35:55;;;;;;;2.10;2.00;;;;;;;4.35;64.99;100685.03;6190236;23;20004;-73
2021/05/02 01:38:23;;;;;;;1.45;1.38;;;;;;;4.27;64.29;100679.88;6145408;23;20021;-73
2021/05/02 01:40:49;;;;;;;1.83;1.73;;;;;;;4.19;64.60;100674.69;6199482;23;20028;-73
2021/05/02 01:43:15;;;;;;;1.15;1.15;;;;;;;4.14;64.48;100671.84;6191282;23;20029;-73
2021/05/02 01:45:43;;;;;;;1.50;1.00;;;;;;;4.08;64.49;100673.53;6163853;23;20012;-73
2021/05/02 01:48:09;;;;;;;0.73;0.73;;;;;;;4.09;64.48;100674.34;6168245;23;20005;-74
2021/05/02 01:50:43;;;;;;;1.13;0.95;;;;;;;4.02;65.00;100675.22;6138461;23;20005;-74
2021/05/02 01:53:09;;;;;;;0.90;0.90;;;;;;;4.01;65.18;100683.56;6194153;23;19997;-73
2021/05/02 01:55:35;;;;;;;0.90;0.90;;;;;;;3.99;64.56;100678.34;6165069;23;20009;-74
2021/05/02 01:58:01;;;;;;;1.45;1.35;;;;;;;3.99;64.37;100681.06;6191547;23;20013;-73
2021/05/02 02:00:41;;;;;;;1.88;0.95;;;;;;;3.99;64.23;100678.34;6191768;23;20009;-74
2021/05/02 02:03:08;;;;;;;0.52;0.52;;;;;;;3.98;64.66;100690.22;6192429;23;20008;-74
2021/05/02 02:05:36;;;;;;;1.05;0.90;;;;;;;3.98;65.21;100690.22;6140026;23;20041;-74
2021/05/02 02:08:03;;;;;;;0.70;0.70;;;;;;;3.95;65.32;100690.66;6190204;23;20005;-74
2021/05/02 02:10:30;;;;;;;1.35;1.35;;;;;;;3.90;65.14;100679.66;6164993;23;20001;-73
2021/05/02 02:12:56;;;;;;;1.67;1.58;;;;;;;3.92;64.89;100685.69;6189185;23;20005;-73
2021/05/02 02:15:21;;;;;;;0.80;0.80;;;;;;;3.92;64.60;100685.69;6139842;23;20001;-73
2021/05/02 02:17:47;;;;;;;0.70;0.70;;;;;;;3.96;65.72;100681.50;6140073;23;20025;-74
2021/05/02 02:20:14;;;;;;;1.08;1.08;;;;;;;3.97;65.03;100693.16;6191458;23;20005;-74
2021/05/02 02:22:44;;;;;;;1.40;1.30;;;;;;;3.95;65.35;100693.38;6165630;23;20040;-74
2021/05/02 02:25:10;;;;;;;1.40;1.30;;;;;;;3.95;65.42;100696.06;6190181;23;20001;-73
2021/05/02 02:27:37;;;;;;;0.80;0.80;;;;;;;3.93;65.41;100692.75;6164032;23;20009;-73
2021/05/02 02:30:08;;;;;;;1.10;1.10;;;;;;;3.92;64.71;100690.28;6189567;23;20001;-72
2021/05/02 02:32:41;;;;;;;1.10;1.10;;;;;;;3.88;64.58;100687.16;6162549;23;20012;-73
2021/05/02 02:35:08;;;;;;;0.90;0.90;;;;;;;3.84;64.94;100696.72;6182766;23;20033;-73
2021/05/02 02:37:37;;;;;;;0.80;0.80;;;;;;;3.80;65.27;100690.13;6186818;23;20012;-74
2021/05/02 02:40:06;;;;;;;0.90;0.90;;;;;;;3.82;65.53;100696.13;6189214;23;20068;-73
2021/05/02 02:42:35;;;;;;;0.70;0.70;;;;;;;3.77;65.52;100695.97;6165611;23;20336;-73
2021/05/02 02:45:05;;;;;;;1.60;1.50;;;;;;;3.72;65.00;100693.06;6188594;23;20005;-73
2021/05/02 02:47:45;;;;;;;1.95;1.52;;;;;;;3.73;65.05;100697.44;6192487;23;19997;-74
2021/05/02 02:50:15;;;;;;;1.42;1.30;;;;;;;3.76;65.13;100705.13;6188711;23;20026;-74
2021/05/02 02:52:51;;;;;;;1.27;1.17;;;;;;;3.79;64.89;100712.78;6188515;23;20012;-74
2021/05/02 02:55:19;;;;;;;1.90;1.80;;;;;;;3.82;65.95;100706.94;6183343;23;20005;-73
2021/05/02 02:57:51;;;;;;;4.07;3.80;;;;;;;3.81;66.33;100699.88;6193259;23;20073;-73
2021/05/02 03:00:20;;;;;;;3.40;3.22;;;;;;;3.78;65.51;100703.88;6197782;23;20012;-73
2021/05/02 03:02:50;;;;;;;2.75;2.65;;;;;;;3.77;66.07;100695.97;6199332;23;19999;-73
2021/05/02 03:05:19;;;;;;;2.72;2.63;;;;;;;3.75;66.43;100695.31;6190098;23;20036;-73
2021/05/02 03:07:48;;;;;;;1.75;1.75;;;;;;;3.78;65.96;100698.44;6191620;23;20005;-74
2021/05/02 03:10:15;;;;;;;2.55;2.45;;;;;;;3.78;65.52;100703.00;6193054;23;20080;-73
2021/05/02 03:12:42;;;;;;;3.50;3.25;;;;;;;3.75;66.28;100695.31;6190262;23;20023;-75
2021/05/02 03:15:09;;;;;;;3.20;3.00;;;;;;;3.77;66.42;100696.78;6189508;23;20087;-74
2021/05/02 03:17:36;;;;;;;7.25;6.60;;;;;;;3.72;66.72;100695.75;6188006;23;20009;-73
2021/05/02 03:20:06;;;;;;;9.98;8.98;;;;;;;3.79;66.61;100707.38;6214387;23;20005;-74
2021/05/02 03:22:56;;;;;;;13.93;10.98;;;;;;;3.79;67.18;100702.78;6187888;23;20336;-74
2021/05/02 03:25:23;;;;;;;11.77;10.18;;;;;;;3.80;67.33;100709.88;6191926;23;20009;-74
2021/05/02 03:27:59;;;;;;;8.75;7.95;;;;;;;3.82;66.97;100709.66;6186150;23;20027;-74
2021/05/02 03:30:27;;;;;;;6.93;6.43;;;;;;;3.80;67.27;100709.06;6190935;23;20323;-73
2021/05/02 03:32:56;;;;;;;6.70;6.22;;;;;;;3.82;67.76;100710.47;6187676;23;20020;-74
2021/05/02 03:35:30;;;;;;;5.85;5.38;;;;;;;3.83;68.14;100714.03;6191736;23;20347;-75
2021/05/02 03:38:22;;;;;;;5.22;5.03;;;;;;;3.86;68.37;100718.19;6189364;23;20448;-75
2021/05/02 03:40:50;;;;;;;5.07;4.63;;;;;;;3.86;67.24;100713.59;6161757;23;20343;-75
2021/05/02 03:43:16;;;;;;;4.13;3.92;;;;;;;3.86;68.11;100713.59;6187641;23;20059;-74
2021/05/02 03:45:42;;;;;;;5.45;5.20;;;;;;;3.86;67.90;100713.59;6187576;23;20001;-74
2021/05/02 03:48:08;;;;;;;5.50;5.07;;;;;;;3.84;67.61;100716.53;6191119;23;19995;-73
2021/05/02 03:50:34;;;;;;;6.55;6.15;;;;;;;3.80;68.53;100719.88;6163341;23;20012;-73
2021/05/02 03:52:59;;;;;;;5.63;5.32;;;;;;;3.78;68.16;100711.13;6191133;23;20016;-74
2021/05/02 03:55:25;;;;;;;6.13;5.57;;;;;;;3.75;68.80;100711.56;6135315;23;20009;-73
2021/05/02 03:57:50;;;;;;;4.40;4.13;;;;;;;3.73;68.66;100713.66;6195230;23;20031;-73
2021/05/02 04:00:16;;;;;;;3.47;3.28;;;;;;;3.70;68.48;100705.97;6178216;23;20005;-73
2021/05/02 04:02:44;;;;;;;4.70;4.45;;;;;;;3.66;67.93;100714.53;6178369;23;20062;-74
2021/05/02 04:05:10;;;;;;;4.97;4.57;;;;;;;3.61;68.74;100708.91;6193619;23;20427;-75
2021/05/02 04:07:35;;;;;;;4.85;4.55;;;;;;;3.57;68.04;100707.66;6166279;23;20036;-74
2021/05/02 04:10:01;;;;;;;5.28;5.07;;;;;;;3.54;68.62;100709.97;6194851;23;20079;-74
2021/05/02 04:12:27;;;;;;;5.07;4.82;;;;;;;3.51;68.01;100716.63;6191930;23;20055;-75
2021/05/02 04:14:52;;;;;;;4.13;3.92;;;;;;;3.49;68.38;100724.13;6166311;23;20335;-74
2021/05/02 04:17:18;;;;;;;4.65;4.35;;;;;;;3.43;68.09;100720.41;6191746;23;20028;-74
2021/05/02 04:19:46;;;;;;;5.25;4.80;;;;;;;3.43;68.69;100724.97;6189597;23;20005;-74
2021/05/02 04:22:15;;;;;;;5.15;4.75;;;;;;;3.40;68.66;100728.09;6190205;23;20317;-74
2021/05/02 04:24:41;;;;;;;5.28;4.97;;;;;;;3.40;69.10;100731.66;6164595;23;20005;-73
2021/05/02 04:27:07;;;;;;;4.43;4.13;;;;;;;3.39;69.18;100734.53;6137676;23;20083;-73
2021/05/02 04:29:34;;;;;;;3.33;3.15;;;;;;;3.39;68.93;100742.63;6161004;23;19997;-72
2021/05/02 04:32:00;;;;;;;2.90;2.70;;;;;;;3.39;67.92;100746.19;6187930;23;20051;-72
2021/05/02 04:34:26;;;;;;;1.98;1.88;;;;;;;3.38;67.74;100746.41;6163799;23;20025;-73
2021/05/02 04:36:54;;;;;;;1.98;1.88;;;;;;;3.35;67.51;100747.66;6162501;23;20083;-75
2021/05/02 04:39:20;;;;;;;2.75;2.58;;;;;;;3.31;68.49;100749.09;6168209;23;20005;-74
2021/05/02 04:41:46;;;;;;;2.72;2.63;;;;;;;3.30;69.01;100751.00;6191083;23;20060;-73
2021/05/02 04:44:11;;;;;;;3.13;3.03;;;;;;;3.29;68.07;100751.19;6186647;23;20009;-73
2021/05/02 04:46:37;;;;;;;3.90;3.70;;;;;;;3.28;68.05;100750.34;6163100;23;20048;-72
2021/05/02 04:49:05;;;;;;;3.50;3.30;;;;;;;3.22;68.26;100748.50;6189907;23;20424;-72
2021/05/02 04:51:31;;;;;;;3.78;3.53;;;;;;;3.26;68.83;100749.75;6190451;23;20060;-74
2021/05/02 04:53:57;;;;;;;6.10;5.70;;;;;;;3.31;69.46;100755.38;6192124;23;20016;-74
2021/05/02 04:56:23;;;;;;;5.85;5.25;;;;;;;3.29;69.54;100757.44;6189056;23;20005;-74
2021/05/02 04:58:48;;;;;;;3.92;3.72;;;;;;;3.37;69.44;100758.25;6139136;23;20401;-73
2021/05/02 05:01:14;;;;;;;3.92;3.72;;;;;;;3.43;68.81;100758.25;6138406;23;20583;-72
2021/05/02 05:03:42;;;;;;;3.30;3.20;;;;;;;3.44;69.04;100748.25;6190100;23;20009;-74
2021/05/02 05:06:07;;;;;;;2.72;2.53;;;;;;;3.53;69.27;100762.38;6166453;23;20005;-74
2021/05/02 05:08:33;;;;;;;1.45;1.45;;;;;;;3.61;68.63;100764.88;6192962;23;20031;-75
2021/05/02 05:11:00;;;;;;;2.00;1.90;;;;;;;3.66;69.06;100770.47;6168621;23;20061;-74
2021/05/02 05:13:26;;;;;;;1.75;1.65;;;;;;;3.72;68.20;100771.50;6165146;23;20020;-74
2021/05/02 05:15:59;;;;;;;1.23;1.23;;;;;;;3.77;68.09;100774.41;6164882;23;19997;-74
2021/05/02 05:18:25;;;;;;;0.93;0.93;;;;;;;3.85;68.19;100779.56;6166534;23;20016;-73
2021/05/02 05:20:52;;;;;;;0.90;0.90;;;;;;;3.86;67.61;100783.13;6189911;23;20001;-73
2021/05/02 05:23:18;;;;;;;1.33;1.10;;;;;;;3.86;67.57;100783.94;6189213;23;20005;-73
2021/05/02 05:25:43;;;;;;;1.08;1.08;;;;;;;3.89;67.67;100786.22;6163836;23;20064;-73
2021/05/02 05:28:09;;;;;;;0.98;0.98;;;;;;;3.93;68.10;100786.63;6163479;23;20046;-72
2021/05/02 05:30:35;;;;;;;0.70;0.70;;;;;;;3.98;68.09;100787.63;6166619;23;20427;-73
2021/05/02 05:33:05;;;;;;;1.13;1.00;;;;;;;4.01;67.33;100792.63;6173043;23;20436;-74
2021/05/02 05:35:31;;;;;;;1.60;1.52;;;;;;;4.05;67.91;100797.63;6147905;23;20013;-74
2021/05/02 05:37:57;;;;;;;1.20;1.20;;;;;;;4.06;68.01;100799.28;6197874;23;20012;-72
2021/05/02 05:40:28;;;;;;;1.38;1.30;;;;;;;4.12;67.22;100806.56;6171172;23;20028;-74
2021/05/02 05:42:55;;;;;;;0.80;0.80;;;;;;;4.14;67.30;100807.16;6196237;23;20383;-74
2021/05/02 05:45:21;;;;;;;0.73;0.73;;;;;;;4.16;67.80;100799.66;6197096;23;20013;-73
2021/05/02 05:47:50;;;;;;;1.15;0.85;;;;;;;4.26;67.56;100810.84;6121020;23;20009;-73
2021/05/02 05:50:21;;;;;;;1.65;1.55;;;;;;;4.32;67.62;100814.59;6189018;23;20008;-74
2021/05/02 05:52:49;;;;;;;1.10;1.10;;;;;;;4.31;66.58;100813.75;6146722;23;20067;-73
2021/05/02 05:55:15;;;;;;;1.35;1.25;;;;;;;4.37;67.42;100826.44;6195035;23;20016;-74
2021/05/02 05:57:41;;;;;;;0.90;0.90;;;;;;;4.33;67.49;100822.50;6170793;23;20001;-73
2021/05/02 06:00:09;;;;;;;1.20;1.20;;;;;;;4.44;66.98;100822.84;6198736;23;20048;-74
2021/05/02 06:02:35;;;;;;;0.80;0.80;;;;;;;4.54;67.13;100829.50;6199550;23;20072;-72
2021/05/02 06:05:03;;;;;;;1.13;1.13;;;;;;;4.61;66.91;100828.63;6199627;23;20013;-75
2021/05/02 06:07:29;;;;;;;3.00;2.80;;;;;;;4.72;67.11;100836.88;6127452;23;20091;-74
2021/05/02 06:09:54;;;;;;;3.13;2.85;;;;;;;4.71;66.54;100821.66;6149235;23;20009;-74
2021/05/02 06:12:20;;;;;;;2.80;2.60;;;;;;;4.86;66.49;100834.09;6196894;23;20051;-73
2021/05/02 06:14:46;;;;;;;2.70;2.45;;;;;;;4.98;66.34;100845.91;6168701;23;20011;-73
2021/05/02 06:17:11;;;;;;;2.33;2.22;;;;;;;5.06;66.62;100847.53;6166486;23;20005;-73
2021/05/02 06:19:38;;;;;;;2.35;2.25;;;;;;;5.11;66.39;100839.56;6167142;23;20012;-73
2021/05/02 06:22:03;;;;;;;1.85;1.75;;;;;;;5.13;66.58;100834.75;6167070;23;20001;-73
2021/05/02 06:24:29;;;;;;;1.95;1.85;;;;;;;5.26;66.38;100844.69;6165328;23;20020;-73
2021/05/02 06:26:54;;;;;;;2.45;2.35;;;;;;;5.32;66.11;100846.50;6167511;23;20467;-73
2021/05/02 06:29:20;;;;;;;3.13;1.60;;;;;;;5.36;66.02;100847.72;6191236;23;20041;-74
2021/05/02 06:31:45;;;;;;;1.70;1.60;;;;;;;5.43;65.87;100842.22;6164963;23;20092;-74
2021/05/02 06:34:11;;;;;;;1.48;1.40;;;;;;;5.47;66.11;100839.91;6142394;23;20024;-73
2021/05/02 06:36:38;;;;;;;1.20;1.08;;;;;;;5.60;65.85;100847.94;6164989;23;20031;-74
2021/05/02 06:39:04;;;;;;;1.02;1.02;;;;;;;5.71;66.42;100849.94;6191463;23;20028;-72
2021/05/02 06:41:29;;;;;;;1.17;1.17;;;;;;;5.83;66.13;100846.47;6191271;23;20005;-72
2021/05/02 06:43:55;;;;;;;1.65;1.58;;;;;;;5.99;65.76;100854.06;6166800;23;20055;-73
2021/05/02 06:46:30;;;;;;;1.40;1.35;;;;;;;6.16;66.10;100861.59;6165858;23;20005;-76
2021/05/02 06:49:04;;;;;;;1.00;1.00;;;;;;;6.34;65.66;100864.31;6192404;23;20009;-73
2021/05/02 06:51:30;;;;;;;1.38;1.38;;;;;;;6.52;65.79;100868.09;6190643;23;20059;-74
2021/05/02 06:53:56;;;;;;;1.92;1.83;;;;;;;6.66;65.51;100866.00;6166396;23;20017;-71
2021/05/02 06:56:34;;;;;;;2.00;1.90;;;;;;;6.77;65.36;100862.53;6189946;23;20005;-73
2021/05/02 06:59:00;;;;;;;1.80;1.70;;;;;;;6.95;65.15;100867.94;6192018;23;20008;-74
2021/05/02 07:01:31;;;;;;;2.10;2.00;;;;;;;6.99;64.90;100854.69;6164473;23;20009;-72
2021/05/02 07:03:56;;;;;;;2.50;2.40;;;;;;;7.29;65.00;100875.59;6166786;23;20009;-71
2021/05/02 07:06:29;;;;;;;2.22;2.13;;;;;;;7.38;64.34;100876.09;6191074;23;20056;-72
2021/05/02 07:08:55;;;;;;;5.40;5.10;;;;;;;7.56;64.46;100880.59;6165675;23;20009;-73
2021/05/02 07:11:22;;;;;;;5.10;4.78;;;;;;;7.64;64.17;100883.00;6190907;23;20031;-72
2021/05/02 07:13:47;;;;;;;6.32;5.97;;;;;;;7.77;64.28;100890.06;6188169;23;20001;-71
2021/05/02 07:16:13;;;;;;;5.93;5.63;;;;;;;7.90;63.35;100887.16;6190142;23;20076;-71
2021/05/02 07:18:40;;;;;;;6.25;5.95;;;;;;;8.02;63.42;100887.13;6136924;23;20019;-71
2021/05/02 07:21:07;;;;;;;7.55;5.95;;;;;;;8.15;63.52;100884.16;6164057;23;20005;-72
2021/05/02 07:23:37;;;;;;;6.95;6.57;;;;;;;8.31;62.90;100879.88;6163006;23;20443;-71
2021/05/02 07:26:02;;;;;;;5.03;4.75;;;;;;;8.49;62.86;100883.53;6187892;23;20009;-73
2021/05/02 07:28:28;;;;;;;2.92;2.83;;;;;;;8.74;62.69;100880.50;6161189;23;19997;-72
2021/05/02 07:30:53;;;;;;;3.47;3.38;;;;;;;9.05;62.98;100892.00;6164309;23;20012;-73
2021/05/02 07:33:19;;;;;;;2.50;2.40;;;;;;;9.38;62.48;100887.69;6190460;23;20035;-75
2021/05/02 07:35:48;;;;;;;3.78;3.58;;;;;;;9.71;62.32;100888.75;6188379;23;20051;-73
2021/05/02 07:38:13;;;;;;;3.75;3.38;;;;;;;10.00;61.96;100885.91;6164942;23;20446;-72
2021/05/02 07:40:38;;;;;;;2.63;2.53;;;;;;;10.30;61.26;100891.81;6142743;23;20008;-71
2021/05/02 07:43:04;;;;;;;2.75;2.55;;;;;;;10.59;61.07;100896.31;6164446;23;20035;-72
2021/05/02 07:45:29;;;;;;;3.08;2.97;;;;;;;10.89;60.40;100898.56;6164324;23;20029;-73
2021/05/02 07:47:55;;;;;;;4.35;4.15;;;;;;;11.10;59.65;100896.06;6189622;23;20005;-71
2021/05/02 07:50:20;;;;;;;3.13;2.97;;;;;;;11.38;59.47;100907.84;6161487;23;20332;-71
2021/05/02 07:52:46;;;;;;;2.65;2.47;;;;;;;11.60;59.46;100892.13;6113447;23;20092;-71
2021/05/02 07:55:14;;;;;;;2.17;2.08;;;;;;;11.88;58.95;100901.13;6163439;23;20015;-72
2021/05/02 07:57:39;;;;;;;2.08;1.98;;;;;;;12.13;58.72;100907.88;6188992;23;20016;-72
2021/05/02 08:00:08;;;;;;;4.18;2.22;;;;;;;12.32;58.18;100889.91;6163062;23;20013;-70
2021/05/02 08:02:34;;;;;;;1.70;1.67;;;;;;;12.57;57.71;100899.34;6187097;23;20001;-72
2021/05/02 08:04:59;;;;;;;1.92;1.83;;;;;;;12.78;57.23;100894.78;6187966;23;20051;-72
2021/05/02 08:07:25;;;;;;;2.38;2.28;;;;;;;12.93;56.67;100902.22;6159272;23;20016;-70
2021/05/02 08:09:50;;;;;;;2.40;2.30;;;;;;;13.12;56.08;100901.72;6186419;23;20009;-71
2021/05/02 08:12:17;;;;;;;2.03;1.92;;;;;;;13.32;55.81;100903.69;6189983;23;20005;-71
2021/05/02 08:14:47;;;;;;;3.00;2.90;;;;;;;13.53;55.59;100904.56;6160825;23;20001;-72
2021/05/02 08:17:12;;;;;;;3.22;3.13;;;;;;;13.69;55.29;100911.69;6189372;23;20079;-72
2021/05/02 08:19:37;;;;;;;4.50;4.30;;;;;;;13.74;53.75;100906.19;6164606;23;20005;-72
2021/05/02 08:22:08;;;;;;;3.33;3.17;;;;;;;13.73;53.34;100904.53;6161556;23;20048;-70
2021/05/02 08:24:36;;;;;;;2.70;2.60;;;;;;;13.68;53.01;100896.31;6160669;23;20016;-71
2021/05/02 08:27:02;;;;;;;3.67;3.40;;;;;;;13.75;53.20;100902.34;6185888;23;20064;-72
2021/05/02 08:29:27;;;;;;;2.42;2.33;;;;;;;13.79;52.80;100897.94;6187972;23;20009;-72
2021/05/02 08:31:53;;;;;;;2.00;1.90;;;;;;;13.86;52.40;100903.16;6161252;23;20009;-72
2021/05/02 08:34:18;;;;;;;3.53;3.22;;;;;;;13.97;52.08;100903.97;6188464;23;20498;-72
2021/05/02 08:36:44;;;;;;;3.22;3.13;;;;;;;14.00;51.50;100908.91;6186103;23;20016;-72
2021/05/02 08:39:12;;;;;;;5.32;4.95;;;;;;;13.91;50.93;100908.66;6186557;23;20024;-73
2021/05/02 08:41:38;;;;;;;4.45;4.25;;;;;;;13.91;51.03;100899.59;6165958;23;20013;-78
2021/05/02 08:44:04;;;;;;;3.20;2.58;;;;;;;14.14;51.70;100910.00;6168573;23;20328;-77
2021/05/02 08:46:30;;;;;;;2.95;2.75;;;;;;;14.37;51.24;100907.75;6193571;23;20036;-76
2021/05/02 08:48:57;;;;;;;3.83;3.63;;;;;;;14.57;49.52;100900.50;6196054;23;20028;-77
2021/05/02 08:51:38;;;;;;;2.55;2.45;;;;;;;14.86;50.08;100902.63;6190692;23;20084;-78
2021/05/02 08:54:04;;;;;;;2.38;2.28;;;;;;;14.92;48.97;100898.72;6167492;23;20083;-77
2021/05/02 08:56:39;;;;;;;1.60;1.50;;;;;;;14.94;49.33;100888.28;6189638;23;20420;-71
2021/05/02 08:59:10;;;;;;;3.05;2.95;;;;;;;14.89;47.59;100893.78;6189476;23;20036;-74
2021/05/02 09:01:49;;;;;;;;;;;;;;;;;;;;;
2021/05/02 09:04:19;;;;;;;2.28;2.17;;;;;;;14.67;47.46;100911.50;6191247;23;20028;-74
2021/05/02 09:06:44;;;;;;;2.05;1.95;;;;;;;14.73;47.45;100902.13;6188916;23;20324;-76
2021/05/02 09:09:13;;;;;;;1.92;1.83;;;;;;;14.64;47.05;100885.38;6193369;23;20067;-77
2021/05/02 09:11:55;;;;;;;1.33;1.33;;;;;;;14.55;47.33;100886.22;6192072;23;20016;-74
2021/05/02 09:14:22;;;;;;;1.20;1.10;;;;;;;14.57;47.15;100906.03;6188533;23;20009;-75
2021/05/02 09:17:37;;;;;;;1.27;1.27;;;;;;;14.53;46.62;100910.44;6191269;23;20015;-77
2021/05/02 09:20:04;;;;;;;1.90;1.80;;;;;;;14.47;46.13;100890.34;6193057;23;20005;-77
2021/05/02 09:22:29;;;;;;;2.28;2.17;;;;;;;14.54;44.67;100873.56;6167921;23;20340;-77
2021/05/02 09:25:10;;;;;;;2.47;2.38;;;;;;;15.06;44.88;100912.72;6190931;23;20008;-75
2021/05/02 09:27:47;;;;;;;1.63;1.55;;;;;;;15.41;45.42;100897.88;6190125;23;20039;-75
2021/05/02 09:30:16;;;;;;;3.10;3.00;;;;;;;15.92;44.06;100913.19;6191857;23;20078;-75
2021/05/02 09:32:44;;;;;;;2.40;2.30;;;;;;;16.32;43.93;100896.50;6192823;23;20005;-75
2021/05/02 09:35:32;;;;;;;2.35;1.23;;;;;;;16.98;44.02;100894.06;6215635;23;20031;-77
2021/05/02 09:38:18;;;;;;;1.52;1.50;;;;;;;17.63;43.45;100894.16;6191604;23;20021;-76
2021/05/02 09:40:44;;;;;;;2.10;2.00;;;;;;;18.16;41.79;100911.50;6202543;23;20016;-74
2021/05/02 09:43:39;;;;;;;;;;;;;;;;;;;;;
2021/05/02 09:49:26;;;;;;;2.83;2.72;;;;;;;20.39;37.25;100923.59;6189573;23;20009;-73
2021/05/02 09:51:52;;;;;;;2.90;2.70;;;;;;;20.28;32.39;100911.16;6193348;23;19997;-75
2021/05/02 09:54:28;;;;;;;2.53;2.42;;;;;;;20.27;31.58;100909.50;6191674;23;20001;-76
2021/05/02 09:57:02;;;;;;;2.30;2.20;;;;;;;20.43;33.00;100907.13;6194221;23;20008;-76
2021/05/02 09:59:35;;;;;;;1.30;1.20;;;;;;;20.58;34.02;100898.34;6192854;23;20001;-77
2021/05/02 10:12:21;;;;;;;1.40;1.33;;;;;;;23.63;27.46;100891.34;6002822;23;20009;-76
2021/05/02 10:14:50;;;;;;;0.40;0.40;;;;;;;22.98;28.31;100898.09;6189537;23;20046;-76
2021/05/02 10:17:16;;;;;;;0.55;0.50;;;;;;;22.53;28.58;100903.44;6191599;23;20069;-76
2021/05/02 10:19:54;;;;;;;0.73;0.73;;;;;;;22.00;26.76;100900.84;6188969;23;20004;-79
2021/05/02 10:22:52;;;;;;;;;;;;;;;;;;;;;
2021/05/02 10:25:36;;;;;;;0.98;0.98;;;;;;;21.31;26.60;100883.09;6191987;23;20044;-77
2021/05/02 10:28:22;;;;;;;1.27;0.98;;;;;;;20.75;27.82;100892.03;6193871;23;20012;-78
2021/05/02 10:31:06;;;;;;;0.70;0.70;;;;;;;21.71;28.89;100899.63;6191784;23;20054;-78
2021/05/02 10:33:52;;;;;;;0.30;0.30;;;;;;;23.88;30.46;100893.06;6187322;23;20012;-77
2021/05/02 10:36:34;;;;;;;;;;;;;;;;;;;;;
2021/05/02 10:39:15;;;;;;;0.28;0.25;;;;;;;27.93;24.90;100905.50;6190583;23;20049;-77
2021/05/02 10:41:45;;;;;;;0.13;0.13;;;;;;;28.78;26.07;100893.31;6194287;23;20047;-78
2021/05/02 10:44:16;;;;;;;0.10;0.10;;;;;;;30.50;26.22;100909.75;6197048;23;20001;-82
2021/05/02 10:47:02;;;;;;;;;;;;;;;;;;;;;
2021/05/02 10:49:28;;;;;;;0.20;0.20;;;;;;;34.12;23.03;100913.13;6195564;23;20033;-79
2021/05/02 10:52:25;;;;;;;;;;;;;;;;;;;;;
2021/05/02 10:55:06;;;;;;;0.30;0.20;;;;;;;35.43;19.66;100893.56;6188859;23;20387;-78
2021/05/02 10:57:34;;;;;;;0.20;0.20;;;;;;;34.30;17.91;100906.53;6192827;23;20371;-78
2021/05/02 11:00:04;;;;;;;0.30;0.30;;;;;;;32.62;16.69;100892.69;6189591;23;20012;-77
2021/05/02 11:02:44;;;;;;;0.30;0.30;;;;;;;30.81;16.53;100903.53;6191537;23;20009;-77
2021/05/02 11:05:14;;;;;;;0.20;0.20;;;;;;;29.18;17.83;100905.09;6192362;23;20035;-78
2021/05/02 11:07:42;;;;;;;0.30;0.30;;;;;;;27.82;18.26;100899.69;6189884;23;20024;-76
2021/05/02 11:10:10;;;;;;;0.30;0.30;;;;;;;26.52;18.90;100890.47;6189353;23;20001;-76
2021/05/02 11:12:36;;;;;;;0.38;0.30;;;;;;;25.40;19.69;100892.31;6189551;23;20005;-77
2021/05/02 11:15:31;;;;;;;1.00;0.50;;;;;;;24.17;20.26;100894.06;6193581;23;20001;-77
2021/05/02 11:18:20;;;;;;;0.77;0.77;;;;;;;23.01;20.81;100888.22;6194697;23;20074;-78
2021/05/02 11:20:51;;;;;;;0.70;0.70;;;;;;;21.94;21.70;100886.28;6196964;23;20012;-78
2021/05/02 11:23:18;;;;;;;0.40;0.40;;;;;;;21.35;22.24;100881.31;6222361;23;20420;-82
2021/05/02 11:25:57;;;;;;;0.63;0.45;;;;;;;21.01;22.57;100888.50;6193728;23;20001;-78
2021/05/02 11:28:56;;;;;;;1.20;1.20;;;;;;;20.49;23.41;100883.63;6192772;23;20096;-78
2021/05/02 11:31:41;;;;;;;0.90;0.90;;;;;;;20.16;24.00;100886.75;6195691;23;20012;-79
2021/05/02 11:34:06;;;;;;;1.27;0.97;;;;;;;20.63;24.18;100886.25;6193717;23;20096;-77
2021/05/02 11:36:40;;;;;;;1.83;1.63;;;;;;;20.62;22.95;100892.97;6195677;23;20033;-79
2021/05/02 11:39:07;;;;;;;1.30;1.20;;;;;;;20.04;22.93;100883.75;6169312;23;20005;-79
2021/05/02 11:42:08;;;;;;;1.70;1.60;;;;;;;20.52;23.88;100887.72;6168473;23;20009;-78
2021/05/02 11:44:40;;;;;;;0.95;0.95;;;;;;;22.14;23.42;100886.72;6135722;23;19994;-79
2021/05/02 11:47:10;;;;;;;0.65;0.65;;;;;;;24.39;22.56;100895.59;6181676;23;20005;-79
2021/05/02 11:49:37;;;;;;;0.45;0.45;;;;;;;26.43;20.52;100887.03;6194373;23;20005;-78
2021/05/02 11:52:06;;;;;;;0.32;0.30;;;;;;;28.48;21.14;100901.66;6177932;23;20005;-80
2021/05/02 11:54:42;;;;;;;;;;;;;;;;;;;;;
2021/05/02 11:57:18;;;;;;;0.57;0.57;;;;;;;31.63;16.94;100879.72;6204025;23;20013;-78
2021/05/02 11:59:52;;;;;;;0.43;0.30;;;;;;;32.95;17.62;100896.28;6193573;23;19997;-80
2021/05/02 12:02:18;;;;;;;0.40;0.10;;;;;;;34.50;17.67;100899.03;6195005;23;20025;-82
2021/05/02 12:04:44;;;;;;;0.50;0.50;;;;;;;35.71;14.18;100897.25;6168030;23;20025;-79